Mastersonville, Pennsylvania
Current Conditions -  °F | °C
As of 6:53 PM on Monday 20 Oct 2014 (Local Time) from KLNS Reporting Station
Clear Clear  
Wind Chill: 54°   Ceiling: Unl
Heat Index: 54°   Visibility: 10mi
Dew Point: 44°   Wind: 6mph
Humidity: 69%   Direction: 150°SSE
Pressure: 29.95"   Gusts: NA
Location:  40.1777°N, 76.4291°W
Report Text: KLNS 202253Z 15005KT 10SM CLR 12/07 A2995 RMK AO2 SLP143 T01220067
Loading
Personal Weather Stations






























Interactive Weather Map
Tropical Storm Tracking
New forecast layout! Learn more

10-Day Weather Forecast

Advertisements
Track Severe Weather on mobile